sensor_id;sensor_type;location;lat;lon;timestamp;pressure;altitude;pressure_sealevel;temperature;humidity
56241;BME280;42155;53.096;23.226;2024-01-30T00:01:30;101759.00;;;0.14;81.55
56241;BME280;42155;53.096;23.226;2024-01-30T00:03:31;101743.41;;;0.08;81.75
56241;BME280;42155;53.096;23.226;2024-01-30T00:05:31;101750.34;;;0.12;81.53
56241;BME280;42155;53.096;23.226;2024-01-30T00:07:32;101698.38;;;-0.16;82.00
56241;BME280;42155;53.096;23.226;2024-01-30T00:09:33;101740.75;;;0.15;81.77
56241;BME280;42155;53.096;23.226;2024-01-30T00:11:34;101706.16;;;-0.08;81.68
56241;BME280;42155;53.096;23.226;2024-01-30T00:13:34;101739.88;;;0.13;81.93
56241;BME280;42155;53.096;23.226;2024-01-30T00:15:34;101753.78;;;0.17;81.51
56241;BME280;42155;53.096;23.226;2024-01-30T00:17:36;101726.88;;;0.09;82.05
56241;BME280;42155;53.096;23.226;2024-01-30T00:19:37;101742.47;;;0.16;82.11
56241;BME280;42155;53.096;23.226;2024-01-30T00:21:38;101745.06;;;0.18;82.05
56241;BME280;42155;53.096;23.226;2024-01-30T00:23:38;101740.72;;;0.17;81.70
56241;BME280;42155;53.096;23.226;2024-01-30T00:25:38;101744.19;;;0.17;81.58
56241;BME280;42155;53.096;23.226;2024-01-30T00:27:42;101741.59;;;0.17;81.84
56241;BME280;42155;53.096;23.226;2024-01-30T00:29:42;101708.66;;;0.03;81.65
56241;BME280;42155;53.096;23.226;2024-01-30T00:31:45;101724.25;;;0.09;82.06
56241;BME280;42155;53.096;23.226;2024-01-30T00:33:46;101738.06;;;0.21;82.12
56241;BME280;42155;53.096;23.226;2024-01-30T00:35:47;101734.63;;;0.18;81.71
56241;BME280;42155;53.096;23.226;2024-01-30T00:37:47;101734.63;;;0.18;81.46
56241;BME280;42155;53.096;23.226;2024-01-30T00:39:47;101699.16;;;-0.06;81.63
56241;BME280;42155;53.096;23.226;2024-01-30T00:41:49;101725.97;;;0.13;81.37
56241;BME280;42155;53.096;23.226;2024-01-30T00:43:49;101745.00;;;0.25;81.42
56241;BME280;42155;53.096;23.226;2024-01-30T00:45:50;101745.00;;;0.25;81.96
56241;BME280;42155;53.096;23.226;2024-01-30T00:47:51;101749.34;;;0.25;82.15
56241;BME280;42155;53.096;23.226;2024-01-30T00:49:51;101751.09;;;0.26;81.42
56241;BME280;42155;53.096;23.226;2024-01-30T00:51:54;101745.88;;;0.26;81.55
56241;BME280;42155;53.096;23.226;2024-01-30T00:53:55;101744.16;;;0.23;81.77
56241;BME280;42155;53.096;23.226;2024-01-30T00:55:56;101750.25;;;0.21;81.65
56241;BME280;42155;53.096;23.226;2024-01-30T00:57:56;101739.81;;;0.21;81.33
56241;BME280;42155;53.096;23.226;2024-01-30T00:59:57;101748.47;;;0.26;81.42
56241;BME280;42155;53.096;23.226;2024-01-30T01:01:57;101729.38;;;0.21;81.41
56241;BME280;42155;53.096;23.226;2024-01-30T01:04:01;101734.53;;;0.27;81.67
56241;BME280;42155;53.096;23.226;2024-01-30T01:06:01;101737.13;;;0.27;81.43
56241;BME280;42155;53.096;23.226;2024-01-30T01:08:04;101726.75;;;0.22;81.84
56241;BME280;42155;53.096;23.226;2024-01-30T01:10:05;101726.69;;;0.27;81.73
56241;BME280;42155;53.096;23.226;2024-01-30T01:12:06;101728.50;;;0.23;81.84
56241;BME280;42155;53.096;23.226;2024-01-30T01:14:06;101729.34;;;0.25;81.36
56241;BME280;42155;53.096;23.226;2024-01-30T01:16:07;101723.25;;;0.25;81.95
56241;BME280;42155;53.096;23.226;2024-01-30T01:18:10;101724.09;;;0.27;81.53
56241;BME280;42155;53.096;23.226;2024-01-30T01:20:11;101718.00;;;0.27;81.31
56241;BME280;42155;53.096;23.226;2024-01-30T01:22:11;101720.63;;;0.25;81.95
56241;BME280;42155;53.096;23.226;2024-01-30T01:24:12;101654.03;;;-0.16;81.42
56241;BME280;42155;53.096;23.226;2024-01-30T01:26:13;101721.47;;;0.27;82.03
56241;BME280;42155;53.096;23.226;2024-01-30T01:28:13;101720.63;;;0.28;81.94
56241;BME280;42155;53.096;23.226;2024-01-30T01:30:14;101710.19;;;0.28;81.91
56241;BME280;42155;53.096;23.226;2024-01-30T01:32:14;101713.66;;;0.29;81.43
56241;BME280;42155;53.096;23.226;2024-01-30T01:34:15;101706.66;;;0.31;81.27
56241;BME280;42155;53.096;23.226;2024-01-30T01:36:16;101675.47;;;0.15;81.48
56241;BME280;42155;53.096;23.226;2024-01-30T01:38:17;101705.78;;;0.30;81.92
56241;BME280;42155;53.096;23.226;2024-01-30T01:40:17;101700.56;;;0.30;81.31
56241;BME280;42155;53.096;23.226;2024-01-30T01:42:17;101687.53;;;0.27;81.23
56241;BME280;42155;53.096;23.226;2024-01-30T01:44:18;101654.66;;;0.08;81.30
56241;BME280;42155;53.096;23.226;2024-01-30T01:46:18;101688.38;;;0.31;81.21
56241;BME280;42155;53.096;23.226;2024-01-30T01:48:19;101675.38;;;0.23;81.05
56241;BME280;42155;53.096;23.226;2024-01-30T01:50:20;101671.94;;;0.21;81.23
56241;BME280;42155;53.096;23.226;2024-01-30T01:52:22;101689.28;;;0.28;81.44
56241;BME280;42155;53.096;23.226;2024-01-30T01:54:23;101677.97;;;0.26;81.43
56241;BME280;42155;53.096;23.226;2024-01-30T01:56:24;101641.66;;;0.03;82.00
56241;BME280;42155;53.096;23.226;2024-01-30T01:58:27;101678.84;;;0.28;81.80
56241;BME280;42155;53.096;23.226;2024-01-30T02:00:30;101682.28;;;0.30;81.06
56241;BME280;42155;53.096;23.226;2024-01-30T02:02:34;101632.03;;;0.10;81.61
56241;BME280;42155;53.096;23.226;2024-01-30T02:04:35;101670.06;;;0.32;81.61
56241;BME280;42155;53.096;23.226;2024-01-30T02:06:35;101645.78;;;0.25;81.30
56241;BME280;42155;53.096;23.226;2024-01-30T02:08:37;101647.56;;;0.22;81.28
56241;BME280;42155;53.096;23.226;2024-01-30T02:10:38;101653.53;;;0.32;81.77
56241;BME280;42155;53.096;23.226;2024-01-30T02:12:38;101618.94;;;0.14;81.05
56241;BME280;42155;53.096;23.226;2024-01-30T02:14:48;101638.00;;;0.21;81.44
56241;BME280;42155;53.096;23.226;2024-01-30T02:16:50;101652.75;;;0.25;81.37
56241;BME280;42155;53.096;23.226;2024-01-30T02:18:51;101659.66;;;0.31;81.33
56241;BME280;42155;53.096;23.226;2024-01-30T02:20:53;101661.38;;;0.33;81.79
56241;BME280;42155;53.096;23.226;2024-01-30T02:22:54;101662.25;;;0.34;81.14
56241;BME280;42155;53.096;23.226;2024-01-30T02:24:56;101669.22;;;0.33;81.40
56241;BME280;42155;53.096;23.226;2024-01-30T02:26:57;101655.22;;;0.36;81.62
56241;BME280;42155;53.096;23.226;2024-01-30T02:28:58;101664.78;;;0.37;81.05
56241;BME280;42155;53.096;23.226;2024-01-30T02:30:58;101663.94;;;0.36;81.08
56241;BME280;42155;53.096;23.226;2024-01-30T02:33:02;101649.06;;;0.41;81.66
56241;BME280;42155;53.096;23.226;2024-01-30T02:35:03;101636.19;;;0.29;81.46
56241;BME280;42155;53.096;23.226;2024-01-30T02:37:04;101635.28;;;0.30;80.93
56241;BME280;42155;53.096;23.226;2024-01-30T02:39:04;101651.69;;;0.41;81.36
56241;BME280;42155;53.096;23.226;2024-01-30T02:41:05;101642.22;;;0.31;81.48
56241;BME280;42155;53.096;23.226;2024-01-30T02:43:05;101645.63;;;0.39;81.43
56241;BME280;42155;53.096;23.226;2024-01-30T02:45:06;101627.59;;;0.16;81.24
56241;BME280;42155;53.096;23.226;2024-01-30T02:47:07;101650.81;;;0.41;80.69
56241;BME280;42155;53.096;23.226;2024-01-30T02:49:08;101637.81;;;0.36;80.91
56241;BME280;42155;53.096;23.226;2024-01-30T02:51:08;101659.50;;;0.44;81.35
56241;BME280;42155;53.096;23.226;2024-01-30T02:53:08;101650.78;;;0.45;81.45
56241;BME280;42155;53.096;23.226;2024-01-30T02:55:09;101645.53;;;0.45;81.07
56241;BME280;42155;53.096;23.226;2024-01-30T02:57:10;101638.56;;;0.46;81.27
56241;BME280;42155;53.096;23.226;2024-01-30T02:59:10;101634.34;;;0.37;81.29
56241;BME280;42155;53.096;23.226;2024-01-30T03:01:11;101639.47;;;0.45;80.68
56241;BME280;42155;53.096;23.226;2024-01-30T03:03:11;101646.41;;;0.46;80.76
56241;BME280;42155;53.096;23.226;2024-01-30T03:05:12;101655.13;;;0.46;80.59
56241;BME280;42155;53.096;23.226;2024-01-30T03:07:12;101642.09;;;0.43;81.01
56241;BME280;42155;53.096;23.226;2024-01-30T03:09:22;101641.25;;;0.43;80.69
56241;BME280;42155;53.096;23.226;2024-01-30T03:11:22;101644.69;;;0.46;80.71
56241;BME280;42155;53.096;23.226;2024-01-30T03:13:22;101637.78;;;0.39;80.75
56241;BME280;42155;53.096;23.226;2024-01-30T03:15:23;101647.31;;;0.46;80.97
56241;BME280;42155;53.096;23.226;2024-01-30T03:17:23;101636.84;;;0.45;80.99
56241;BME280;42155;53.096;23.226;2024-01-30T03:19:25;101644.69;;;0.45;81.22
56241;BME280;42155;53.096;23.226;2024-01-30T03:21:26;101646.47;;;0.43;81.11
56241;BME280;42155;53.096;23.226;2024-01-30T03:23:27;101643.00;;;0.42;81.35
56241;BME280;42155;53.096;23.226;2024-01-30T03:25:27;101640.38;;;0.42;81.25
56241;BME280;42155;53.096;23.226;2024-01-30T03:27:27;101639.50;;;0.42;80.96
56241;BME280;42155;53.096;23.226;2024-01-30T03:29:28;101633.47;;;0.38;81.14
56241;BME280;42155;53.096;23.226;2024-01-30T03:31:28;101593.69;;;0.15;80.78
56241;BME280;42155;53.096;23.226;2024-01-30T03:33:29;101623.06;;;0.34;80.98
56241;BME280;42155;53.096;23.226;2024-01-30T03:35:29;101631.69;;;0.40;81.04
56241;BME280;42155;53.096;23.226;2024-01-30T03:37:29;101635.19;;;0.39;80.42
56241;BME280;42155;53.096;23.226;2024-01-30T03:39:30;101608.41;;;0.20;80.77
56241;BME280;42155;53.096;23.226;2024-01-30T03:41:33;101572.94;;;0.03;80.58
56241;BME280;42155;53.096;23.226;2024-01-30T03:43:34;101636.97;;;0.37;80.59
56241;BME280;42155;53.096;23.226;2024-01-30T03:45:34;101623.91;;;0.37;80.65
56241;BME280;42155;53.096;23.226;2024-01-30T03:47:35;101609.19;;;0.30;80.44
56241;BME280;42155;53.096;23.226;2024-01-30T03:49:35;101621.31;;;0.34;80.37
56241;BME280;42155;53.096;23.226;2024-01-30T03:51:38;101611.75;;;0.32;81.19
56241;BME280;42155;53.096;23.226;2024-01-30T03:53:38;101610.94;;;0.27;80.52
56241;BME280;42155;53.096;23.226;2024-01-30T03:55:39;101623.16;;;0.26;81.33
56241;BME280;42155;53.096;23.226;2024-01-30T03:57:39;101622.28;;;0.25;81.35
56241;BME280;42155;53.096;23.226;2024-01-30T03:59:42;101618.78;;;0.27;80.59
56241;BME280;42155;53.096;23.226;2024-01-30T04:01:42;101610.19;;;0.17;80.83
56241;BME280;42155;53.096;23.226;2024-01-30T04:03:43;101626.66;;;0.22;80.98
56241;BME280;42155;53.096;23.226;2024-01-30T04:05:45;101634.44;;;0.28;80.97
56241;BME280;42155;53.096;23.226;2024-01-30T04:07:47;101610.25;;;0.09;80.86
56241;BME280;42155;53.096;23.226;2024-01-30T04:09:48;101634.56;;;0.19;80.96
56241;BME280;42155;53.096;23.226;2024-01-30T04:11:48;101633.69;;;0.17;80.77
56241;BME280;42155;53.096;23.226;2024-01-30T04:13:49;101624.16;;;0.14;81.21
56241;BME280;42155;53.096;23.226;2024-01-30T04:15:49;101625.94;;;0.11;81.00
56241;BME280;42155;53.096;23.226;2024-01-30T04:17:50;101617.22;;;0.09;80.85
56241;BME280;42155;53.096;23.226;2024-01-30T04:19:50;101632.03;;;0.10;80.68
56241;BME280;42155;53.096;23.226;2024-01-30T04:21:51;101630.28;;;0.10;80.71
56241;BME280;42155;53.096;23.226;2024-01-30T04:23:51;101630.28;;;0.09;80.88
56241;BME280;42155;53.096;23.226;2024-01-30T04:25:52;101606.13;;;-0.09;80.88
56241;BME280;42155;53.096;23.226;2024-01-30T04:27:52;101611.31;;;-0.06;80.99
56241;BME280;42155;53.096;23.226;2024-01-30T04:29:53;101615.66;;;-0.05;81.13
56241;BME280;42155;53.096;23.226;2024-01-30T04:31:53;101621.69;;;0.01;80.80
56241;BME280;42155;53.096;23.226;2024-01-30T04:33:54;101619.91;;;0.03;80.57
56241;BME280;42155;53.096;23.226;2024-01-30T04:35:54;101615.56;;;0.03;81.24
56241;BME280;42155;53.096;23.226;2024-01-30T04:37:55;101619.91;;;0.06;81.03
56241;BME280;42155;53.096;23.226;2024-01-30T04:39:55;101612.06;;;0.06;80.43
56241;BME280;42155;53.096;23.226;2024-01-30T04:41:57;101609.47;;;0.03;80.58
56241;BME280;42155;53.096;23.226;2024-01-30T04:43:57;101610.25;;;0.09;80.33
56241;BME280;42155;53.096;23.226;2024-01-30T04:46:00;101612.03;;;0.10;80.87
56241;BME280;42155;53.096;23.226;2024-01-30T04:48:00;101553.19;;;-0.21;81.13
56241;BME280;42155;53.096;23.226;2024-01-30T04:50:01;101603.31;;;0.10;81.08
56241;BME280;42155;53.096;23.226;2024-01-30T04:52:02;101599.03;;;0.06;80.85
56241;BME280;42155;53.096;23.226;2024-01-30T04:54:03;101597.22;;;0.11;80.26
56241;BME280;42155;53.096;23.226;2024-01-30T04:56:05;101610.22;;;0.15;81.00
56241;BME280;42155;53.096;23.226;2024-01-30T04:58:05;101610.25;;;0.12;80.33
56241;BME280;42155;53.096;23.226;2024-01-30T05:00:06;101612.78;;;0.20;80.71
56241;BME280;42155;53.096;23.226;2024-01-30T05:02:07;101612.81;;;0.17;80.25
56241;BME280;42155;53.096;23.226;2024-01-30T05:04:08;101598.06;;;0.14;80.58
56241;BME280;42155;53.096;23.226;2024-01-30T05:06:09;101611.00;;;0.22;80.24
56241;BME280;42155;53.096;23.226;2024-01-30T05:08:09;101608.38;;;0.25;80.67
56241;BME280;42155;53.096;23.226;2024-01-30T05:10:10;101598.88;;;0.16;80.45
56241;BME280;42155;53.096;23.226;2024-01-30T05:12:10;101622.25;;;0.29;80.33
56241;BME280;42155;53.096;23.226;2024-01-30T05:14:10;101603.94;;;0.30;80.22
56241;BME280;42155;53.096;23.226;2024-01-30T05:16:11;101603.97;;;0.27;80.64
56241;BME280;42155;53.096;23.226;2024-01-30T05:18:11;101589.22;;;0.23;80.19
56241;BME280;42155;53.096;23.226;2024-01-30T05:20:12;101563.28;;;0.11;80.56
56241;BME280;42155;53.096;23.226;2024-01-30T05:22:13;101598.75;;;0.27;80.81
56241;BME280;42155;53.096;23.226;2024-01-30T05:24:13;101590.16;;;0.17;80.34
56241;BME280;42155;53.096;23.226;2024-01-30T05:26:14;101597.03;;;0.26;80.04
56241;BME280;42155;53.096;23.226;2024-01-30T05:28:14;101584.03;;;0.21;80.63
56241;BME280;42155;53.096;23.226;2024-01-30T05:30:15;101607.47;;;0.26;80.70
56241;BME280;42155;53.096;23.226;2024-01-30T05:32:15;101603.19;;;0.20;80.36
56241;BME280;42155;53.096;23.226;2024-01-30T05:34:16;101601.47;;;0.19;80.20
56241;BME280;42155;53.096;23.226;2024-01-30T05:36:16;101599.72;;;0.20;80.99
56241;BME280;42155;53.096;23.226;2024-01-30T05:38:17;101597.16;;;0.14;80.55
56241;BME280;42155;53.096;23.226;2024-01-30T05:40:18;101594.50;;;0.20;80.20
56241;BME280;42155;53.096;23.226;2024-01-30T05:42:19;101600.63;;;0.19;80.68
56241;BME280;42155;53.096;23.226;2024-01-30T05:44:22;101593.69;;;0.13;80.17
56241;BME280;42155;53.096;23.226;2024-01-30T05:46:23;101604.97;;;0.17;80.19
56241;BME280;42155;53.096;23.226;2024-01-30T05:48:24;101607.59;;;0.17;80.72
56241;BME280;42155;53.096;23.226;2024-01-30T05:50:25;101598.91;;;0.15;80.38
56241;BME280;42155;53.096;23.226;2024-01-30T05:52:25;101583.31;;;0.09;80.36
56241;BME280;42155;53.096;23.226;2024-01-30T05:54:26;101591.09;;;0.13;80.27
56241;BME280;42155;53.096;23.226;2024-01-30T05:56:26;101576.34;;;0.11;80.62
56241;BME280;42155;53.096;23.226;2024-01-30T05:58:26;101578.09;;;0.10;80.12
56241;BME280;42155;53.096;23.226;2024-01-30T06:00:27;101578.06;;;0.12;80.51
56241;BME280;42155;53.096;23.226;2024-01-30T06:02:28;101566.84;;;0.04;80.29
56241;BME280;42155;53.096;23.226;2024-01-30T06:04:28;101587.56;;;0.17;80.46
56241;BME280;42155;53.096;23.226;2024-01-30T06:06:29;101589.28;;;0.18;80.46
56241;BME280;42155;53.096;23.226;2024-01-30T06:08:29;101604.06;;;0.21;80.08
56241;BME280;42155;53.096;23.226;2024-01-30T06:10:30;101601.41;;;0.22;80.50
56241;BME280;42155;53.096;23.226;2024-01-30T06:12:31;101579.75;;;0.16;80.02
56241;BME280;42155;53.096;23.226;2024-01-30T06:14:31;101557.28;;;0.03;79.75
56241;BME280;42155;53.096;23.226;2024-01-30T06:16:32;101584.16;;;0.09;79.71
56241;BME280;42155;53.096;23.226;2024-01-30T06:18:35;101596.13;;;0.30;80.06
56241;BME280;42155;53.096;23.226;2024-01-30T06:20:36;101607.41;;;0.34;80.05
56241;BME280;42155;53.096;23.226;2024-01-30T06:22:37;101604.78;;;0.34;79.38
56241;BME280;42155;53.096;23.226;2024-01-30T06:24:37;101603.91;;;0.35;79.35
56241;BME280;42155;53.096;23.226;2024-01-30T06:26:38;101598.75;;;0.27;79.96
56241;BME280;42155;53.096;23.226;2024-01-30T06:28:38;101576.25;;;0.17;79.35
56241;BME280;42155;53.096;23.226;2024-01-30T06:30:39;101593.56;;;0.25;79.80
56241;BME280;42155;53.096;23.226;2024-01-30T06:32:42;101588.28;;;0.30;79.20
56241;BME280;42155;53.096;23.226;2024-01-30T06:34:43;101600.34;;;0.40;79.30
56241;BME280;42155;53.096;23.226;2024-01-30T06:36:45;101607.22;;;0.47;79.27
56241;BME280;42155;53.096;23.226;2024-01-30T06:38:45;101607.16;;;0.50;79.12
56241;BME280;42155;53.096;23.226;2024-01-30T06:40:46;101607.16;;;0.54;79.08
56241;BME280;42155;53.096;23.226;2024-01-30T06:42:47;101599.25;;;0.58;79.42
56241;BME280;42155;53.096;23.226;2024-01-30T06:44:47;101594.00;;;0.60;78.82
56241;BME280;42155;53.096;23.226;2024-01-30T06:46:48;101592.34;;;0.54;78.67
56241;BME280;42155;53.096;23.226;2024-01-30T06:48:49;101608.75;;;0.64;79.00
56241;BME280;42155;53.096;23.226;2024-01-30T06:50:49;101607.88;;;0.63;79.11
56241;BME280;42155;53.096;23.226;2024-01-30T06:52:50;101589.63;;;0.62;79.16
56241;BME280;42155;53.096;23.226;2024-01-30T06:54:51;101586.03;;;0.69;78.70
56241;BME280;42155;53.096;23.226;2024-01-30T06:56:51;101585.09;;;0.73;79.19
56241;BME280;42155;53.096;23.226;2024-01-30T06:58:52;101583.22;;;0.83;78.65
56241;BME280;42155;53.096;23.226;2024-01-30T07:00:52;101587.47;;;0.91;78.67
56241;BME280;42155;53.096;23.226;2024-01-30T07:02:53;101590.81;;;1.01;78.29
56241;BME280;42155;53.096;23.226;2024-01-30T07:04:54;101576.75;;;1.08;77.85
56241;BME280;42155;53.096;23.226;2024-01-30T07:06:55;101580.91;;;1.21;78.20
56241;BME280;42155;53.096;23.226;2024-01-30T07:08:55;101587.69;;;1.33;77.57
56241;BME280;42155;53.096;23.226;2024-01-30T07:10:56;101600.63;;;1.42;77.77
56241;BME280;42155;53.096;23.226;2024-01-30T07:12:57;101576.13;;;1.46;76.98
56241;BME280;42155;53.096;23.226;2024-01-30T07:15:01;101555.19;;;1.46;77.39
56241;BME280;42155;53.096;23.226;2024-01-30T07:17:01;101575.00;;;1.61;77.21
56241;BME280;42155;53.096;23.226;2024-01-30T07:19:02;101571.44;;;1.65;77.20
56241;BME280;42155;53.096;23.226;2024-01-30T07:21:05;101588.69;;;1.75;76.57
56241;BME280;42155;53.096;23.226;2024-01-30T07:23:09;101568.53;;;1.82;76.30
56241;BME280;42155;53.096;23.226;2024-01-30T07:25:10;101564.88;;;1.89;76.42
56241;BME280;42155;53.096;23.226;2024-01-30T07:27:10;101565.69;;;1.94;76.53
56241;BME280;42155;53.096;23.226;2024-01-30T07:29:11;101566.38;;;2.02;75.91
56241;BME280;42155;53.096;23.226;2024-01-30T07:31:11;101556.66;;;2.09;75.91
56241;BME280;42155;53.096;23.226;2024-01-30T07:33:12;101554.78;;;2.16;76.06
56241;BME280;42155;53.096;23.226;2024-01-30T07:35:13;101547.59;;;2.25;75.16
56241;BME280;42155;53.096;23.226;2024-01-30T07:37:14;101557.91;;;2.33;75.07
56241;BME280;42155;53.096;23.226;2024-01-30T07:39:14;101552.53;;;2.41;74.74
56241;BME280;42155;53.096;23.226;2024-01-30T07:41:14;101539.31;;;2.45;74.58
56241;BME280;42155;53.096;23.226;2024-01-30T07:43:15;101551.19;;;2.62;75.16
56241;BME280;42155;53.096;23.226;2024-01-30T07:45:15;101553.81;;;2.62;74.36
56241;BME280;42155;53.096;23.226;2024-01-30T07:47:16;101555.63;;;2.58;74.33
56241;BME280;42155;53.096;23.226;2024-01-30T07:49:17;101562.78;;;2.51;74.53
56241;BME280;42155;53.096;23.226;2024-01-30T07:51:17;101563.59;;;2.53;74.71
56241;BME280;42155;53.096;23.226;2024-01-30T07:53:17;101562.72;;;2.54;74.60
56241;BME280;42155;53.096;23.226;2024-01-30T07:55:18;101556.47;;;2.59;74.77
56241;BME280;42155;53.096;23.226;2024-01-30T07:57:19;101568.31;;;2.78;74.22
56241;BME280;42155;53.096;23.226;2024-01-30T07:59:19;101562.97;;;2.81;73.45
56241;BME280;42155;53.096;23.226;2024-01-30T08:01:19;101572.34;;;2.93;73.93
56241;BME280;42155;53.096;23.226;2024-01-30T08:03:20;101542.00;;;2.81;73.47
56241;BME280;42155;53.096;23.226;2024-01-30T08:05:20;101572.91;;;3.05;73.35
56241;BME280;42155;53.096;23.226;2024-01-30T08:07:21;101571.81;;;3.14;73.34
56241;BME280;42155;53.096;23.226;2024-01-30T08:09:21;101566.38;;;3.22;72.92
56241;BME280;42155;53.096;23.226;2024-01-30T08:11:22;101566.16;;;3.31;72.61
56241;BME280;42155;53.096;23.226;2024-01-30T08:13:23;101546.94;;;3.30;72.02
56241;BME280;42155;53.096;23.226;2024-01-30T08:15:24;101558.91;;;3.41;72.03
56241;BME280;42155;53.096;23.226;2024-01-30T08:17:25;101553.56;;;3.45;71.82
56241;BME280;42155;53.096;23.226;2024-01-30T08:19:25;101517.97;;;3.35;71.55
56241;BME280;42155;53.096;23.226;2024-01-30T08:21:26;101550.69;;;3.54;71.87
56241;BME280;42155;53.096;23.226;2024-01-30T08:23:26;101567.19;;;3.60;71.46
56241;BME280;42155;53.096;23.226;2024-01-30T08:25:27;101558.25;;;3.67;71.39
56241;BME280;42155;53.096;23.226;2024-01-30T08:27:27;101540.75;;;3.67;70.84
56241;BME280;42155;53.096;23.226;2024-01-30T08:29:28;101552.66;;;3.80;70.72
56241;BME280;42155;53.096;23.226;2024-01-30T08:31:28;101497.16;;;3.60;70.81
56241;BME280;42155;53.096;23.226;2024-01-30T08:33:29;101552.00;;;4.03;70.20
56241;BME280;42155;53.096;23.226;2024-01-30T08:35:30;101537.84;;;4.09;70.16
56241;BME280;42155;53.096;23.226;2024-01-30T08:37:31;101530.94;;;4.05;70.08
56241;BME280;42155;53.096;23.226;2024-01-30T08:39:31;101548.69;;;4.28;69.94
56241;BME280;42155;53.096;23.226;2024-01-30T08:41:32;101545.13;;;4.29;69.20
56241;BME280;42155;53.096;23.226;2024-01-30T08:43:32;101541.38;;;4.39;69.54
56241;BME280;42155;53.096;23.226;2024-01-30T08:45:32;101531.13;;;4.30;69.46
56241;BME280;42155;53.096;23.226;2024-01-30T08:47:33;101543.16;;;4.37;69.21
56241;BME280;42155;53.096;23.226;2024-01-30T08:49:34;101531.97;;;4.30;69.02
56241;BME280;42155;53.096;23.226;2024-01-30T08:51:34;101541.97;;;4.47;69.29
56241;BME280;42155;53.096;23.226;2024-01-30T08:53:35;101542.81;;;4.49;69.01
56241;BME280;42155;53.096;23.226;2024-01-30T08:55:36;101533.03;;;4.53;68.30
56241;BME280;42155;53.096;23.226;2024-01-30T08:57:37;101525.91;;;4.56;68.15
56241;BME280;42155;53.096;23.226;2024-01-30T08:59:37;101519.75;;;4.57;68.21
56241;BME280;42155;53.096;23.226;2024-01-30T09:01:38;101534.22;;;4.72;67.77
56241;BME280;42155;53.096;23.226;2024-01-30T09:03:38;101536.59;;;4.80;67.63
56241;BME280;42155;53.096;23.226;2024-01-30T09:05:39;101536.50;;;4.83;67.40
56241;BME280;42155;53.096;23.226;2024-01-30T09:07:42;101521.50;;;4.87;67.56
56241;BME280;42155;53.096;23.226;2024-01-30T09:09:43;101523.84;;;4.94;67.13
56241;BME280;42155;53.096;23.226;2024-01-30T09:11:43;101529.66;;;5.05;67.20
56241;BME280;42155;53.096;23.226;2024-01-30T09:13:44;101538.97;;;5.16;66.34
56241;BME280;42155;53.096;23.226;2024-01-30T09:15:45;101527.28;;;5.24;66.38
56241;BME280;42155;53.096;23.226;2024-01-30T09:17:45;101516.69;;;5.26;65.93
56241;BME280;42155;53.096;23.226;2024-01-30T09:19:46;101507.84;;;5.28;66.08
56241;BME280;42155;53.096;23.226;2024-01-30T09:21:46;101515.25;;;5.42;65.82
56241;BME280;42155;53.096;23.226;2024-01-30T09:23:47;101514.19;;;5.48;65.71
56241;BME280;42155;53.096;23.226;2024-01-30T09:25:48;101520.84;;;5.58;65.26
56241;BME280;42155;53.096;23.226;2024-01-30T09:27:51;101518.19;;;5.59;65.16
56241;BME280;42155;53.096;23.226;2024-01-30T09:29:52;101524.88;;;5.68;64.68
56241;BME280;42155;53.096;23.226;2024-01-30T09:31:53;101512.69;;;5.66;64.91
56241;BME280;42155;53.096;23.226;2024-01-30T09:33:58;101490.09;;;5.58;64.53
56241;BME280;42155;53.096;23.226;2024-01-30T09:35:58;101514.09;;;5.76;64.72
56241;BME280;42155;53.096;23.226;2024-01-30T09:37:59;101513.75;;;5.85;64.07
56241;BME280;42155;53.096;23.226;2024-01-30T09:39:59;101491.28;;;5.75;64.32
56241;BME280;42155;53.096;23.226;2024-01-30T09:44:05;101482.06;;;5.86;63.63
56241;BME280;42155;53.096;23.226;2024-01-30T09:46:08;101483.38;;;6.00;63.66
56241;BME280;42155;53.096;23.226;2024-01-30T09:48:12;101483.44;;;5.98;63.64
56241;BME280;42155;53.096;23.226;2024-01-30T09:50:14;101491.78;;;6.09;63.35
56241;BME280;42155;53.096;23.226;2024-01-30T09:52:14;101480.81;;;5.98;63.29
56241;BME280;42155;53.096;23.226;2024-01-30T09:54:15;101495.25;;;6.11;63.28
56241;BME280;42155;53.096;23.226;2024-01-30T09:56:16;101499.59;;;6.12;62.98
56241;BME280;42155;53.096;23.226;2024-01-30T09:58:18;101481.50;;;6.03;62.93
56241;BME280;42155;53.096;23.226;2024-01-30T10:00:18;101488.38;;;6.07;62.88
56241;BME280;42155;53.096;23.226;2024-01-30T10:02:20;101496.84;;;6.16;62.94
56241;BME280;42155;53.096;23.226;2024-01-30T10:04:20;101493.88;;;6.25;62.50
56241;BME280;42155;53.096;23.226;2024-01-30T10:06:22;101484.22;;;6.24;62.54
56241;BME280;42155;53.096;23.226;2024-01-30T10:08:23;101494.50;;;6.31;62.58
56241;BME280;42155;53.096;23.226;2024-01-30T10:10:23;101494.56;;;6.30;62.58
56241;BME280;42155;53.096;23.226;2024-01-30T10:12:26;101494.31;;;6.36;61.87
56241;BME280;42155;53.096;23.226;2024-01-30T10:14:26;101489.84;;;6.38;62.21
56241;BME280;42155;53.096;23.226;2024-01-30T10:16:27;101487.22;;;6.38;62.11
56241;BME280;42155;53.096;23.226;2024-01-30T10:18:28;101492.25;;;6.44;61.99
56241;BME280;42155;53.096;23.226;2024-01-30T10:20:29;101478.13;;;6.45;61.73
56241;BME280;42155;53.096;23.226;2024-01-30T10:22:30;101488.56;;;6.48;61.40
56241;BME280;42155;53.096;23.226;2024-01-30T10:24:32;101477.66;;;6.57;61.58
56241;BME280;42155;53.096;23.226;2024-01-30T10:26:33;101465.50;;;6.53;61.56
56241;BME280;42155;53.096;23.226;2024-01-30T10:28:33;101479.00;;;6.68;61.56
56241;BME280;42155;53.096;23.226;2024-01-30T10:30:34;101470.25;;;6.67;61.35
56241;BME280;42155;53.096;23.226;2024-01-30T10:32:34;101476.13;;;6.74;60.91
56241;BME280;42155;53.096;23.226;2024-01-30T10:34:35;101466.69;;;6.68;60.52